createdAt,value
2016-02-11T00:00:25.818Z,5.68
2016-02-11T00:01:25.805Z,5.71
2016-02-11T00:02:25.760Z,5.71
2016-02-11T00:03:25.748Z,5.69
2016-02-11T00:04:25.720Z,5.76
2016-02-11T00:05:25.691Z,5.66
2016-02-11T00:06:25.647Z,5.69
2016-02-11T00:07:25.635Z,5.61
2016-02-11T00:08:25.606Z,5.69
2016-02-11T00:09:25.593Z,5.68
2016-02-11T00:10:25.549Z,5.65
2016-02-11T00:11:25.552Z,5.64
2016-02-11T00:12:25.492Z,5.65
2016-02-11T00:13:25.463Z,5.64
2016-02-11T00:14:25.437Z,5.54
2016-02-11T00:15:25.439Z,5.51
2016-02-11T00:16:25.380Z,5.64
2016-02-11T00:17:25.352Z,5.61
2016-02-11T00:18:25.324Z,5.65
2016-02-11T00:19:25.295Z,5.62
2016-02-11T00:20:25.266Z,5.59
2016-02-11T00:21:25.254Z,5.62
2016-02-11T00:22:25.226Z,5.64
2016-02-11T00:23:25.213Z,5.61
2016-02-11T00:24:25.169Z,5.62
2016-02-11T00:25:25.143Z,5.56
2016-02-11T00:26:25.098Z,5.54
2016-02-11T00:27:25.085Z,5.56
2016-02-11T00:28:25.057Z,5.54
2016-02-11T00:29:25.028Z,5.53
2016-02-11T00:30:25.036Z,5.56
2016-02-11T00:31:24.974Z,5.51
2016-02-11T00:32:24.936Z,5.48
2016-02-11T00:33:24.914Z,5.46
2016-02-11T00:34:24.889Z,5.51
2016-02-11T00:35:24.854Z,5.46
2016-02-11T00:36:24.857Z,5.44
2016-02-11T00:37:24.797Z,5.51
2016-02-11T00:38:24.769Z,5.39
2016-02-11T00:39:24.757Z,5.46
2016-02-11T00:40:24.712Z,5.36
2016-02-11T00:41:24.699Z,5.41
2016-02-11T00:42:24.672Z,5.44
2016-02-11T00:43:24.644Z,5.46
2016-02-11T00:44:24.599Z,5.38
2016-02-11T00:45:24.571Z,5.3
2016-02-11T00:46:24.557Z,5.28
2016-02-11T00:47:24.530Z,5.32
2016-02-11T00:48:24.485Z,5.3
2016-02-11T00:49:24.457Z,5.26
2016-02-11T00:50:24.429Z,5.32
2016-02-11T00:51:24.417Z,5.3
2016-02-11T00:52:24.404Z,5.33
2016-02-11T00:53:24.345Z,5.12
2016-02-11T00:54:24.331Z,5.23
2016-02-11T00:55:24.304Z,5.15
2016-02-11T00:56:24.276Z,5.12
2016-02-11T00:57:24.246Z,5.08
2016-02-11T00:58:24.218Z,5.08
2016-02-11T00:59:24.191Z,5.14
2016-02-11T01:00:24.163Z,5.12
2016-02-11T01:01:24.134Z,5.11
2016-02-11T01:02:24.105Z,5.1
2016-02-11T01:03:24.077Z,5.08
2016-02-11T01:04:24.048Z,5.1
2016-02-11T01:05:24.023Z,5.04
2016-02-11T01:06:23.995Z,5.04
2016-02-11T01:07:23.966Z,5.11
2016-02-11T01:08:23.938Z,5.1
2016-02-11T01:09:23.910Z,5.04
2016-02-11T01:10:23.881Z,5.04
2016-02-11T01:11:23.868Z,5.1
2016-02-11T01:12:23.824Z,5.08
2016-02-11T01:13:23.795Z,5.12
2016-02-11T01:14:23.767Z,5.11
2016-02-11T01:15:23.739Z,5.14
2016-02-11T01:16:23.710Z,5.1
2016-02-11T01:17:23.682Z,5.15
2016-02-11T01:18:23.653Z,5.14
2016-02-11T01:19:23.625Z,5.14
2016-02-11T01:20:23.596Z,5.21
2016-02-11T01:21:23.584Z,5.12
2016-02-11T01:22:23.540Z,5.18
2016-02-11T01:23:23.512Z,5.25
2016-02-11T01:24:23.482Z,5.25
2016-02-11T01:25:23.474Z,5.11
2016-02-11T01:26:23.275Z,5.26
2016-02-11T01:27:23.402Z,5.25
2016-02-11T01:28:23.373Z,5.23
2016-02-11T01:29:23.360Z,5.25
2016-02-11T01:30:23.316Z,5.26
2016-02-11T01:31:23.303Z,5.25
2016-02-11T01:32:23.258Z,5.29
2016-02-11T01:33:23.234Z,5.28
2016-02-11T01:34:23.205Z,5.25
2016-02-11T01:35:23.177Z,5.25
2016-02-11T01:36:23.149Z,5.3
2016-02-11T01:37:23.121Z,5.33
2016-02-11T01:38:23.103Z,5.26
2016-02-11T01:39:23.060Z,5.23
2016-02-11T01:40:23.031Z,5.25
2016-02-11T01:41:23.003Z,5.32
2016-02-11T01:42:22.989Z,5.26
2016-02-11T01:43:22.946Z,5.33
2016-02-11T01:44:22.948Z,5.28
2016-02-11T01:45:22.905Z,5.29
2016-02-11T01:46:22.860Z,5.33
2016-02-11T01:47:22.832Z,5.3
2016-02-11T01:48:22.818Z,5.33
2016-02-11T01:49:22.774Z,5.26
2016-02-11T01:50:22.745Z,5.28
2016-02-11T01:51:22.718Z,5.32
2016-02-11T01:52:22.704Z,5.3
2016-02-11T01:53:22.691Z,5.32
2016-02-11T01:54:22.646Z,5.25
2016-02-11T01:55:22.603Z,5.3
2016-02-11T01:56:22.591Z,5.32
2016-02-11T01:57:22.563Z,5.25
2016-02-11T01:58:22.550Z,5.25
2016-02-11T01:59:22.490Z,5.23
2016-02-11T02:00:22.476Z,5.25
2016-02-11T02:01:22.449Z,5.21
2016-02-11T02:02:22.420Z,5.21
2016-02-11T02:03:22.392Z,5.23
2016-02-11T02:04:22.364Z,5.11
2016-02-11T02:05:22.335Z,5.08
2016-02-11T02:06:22.306Z,5.15
2016-02-11T02:07:22.278Z,5.14
2016-02-11T02:08:22.250Z,5.18
2016-02-11T02:09:22.221Z,5.2
2016-02-11T02:10:22.192Z,5.15
2016-02-11T02:11:22.163Z,5.08
2016-02-11T02:12:22.135Z,5.17
2016-02-11T02:13:22.121Z,5.1
2016-02-11T02:14:22.077Z,5.08
2016-02-11T02:15:22.049Z,5.21
2016-02-11T02:16:22.037Z,5.14
2016-02-11T02:17:21.993Z,5.11
2016-02-11T02:18:21.965Z,5.08
2016-02-11T02:19:21.952Z,5.1
2016-02-11T02:20:21.908Z,5.12
2016-02-11T02:21:21.879Z,5.1
2016-02-11T02:22:21.850Z,5.14
2016-02-11T02:23:21.838Z,5.1
2016-02-11T02:24:21.794Z,5.08
2016-02-11T02:25:21.781Z,5.05
2016-02-11T02:26:21.736Z,5.1
2016-02-11T02:27:21.725Z,5.04
2016-02-11T02:28:21.681Z,5.1
2016-02-11T02:29:21.684Z,5.04
2016-02-11T02:30:21.640Z,5.07
2016-02-11T02:31:21.611Z,5
2016-02-11T02:32:21.582Z,4.94
2016-02-11T02:33:21.554Z,4.94
2016-02-11T02:34:21.526Z,4.96
2016-02-11T02:35:21.481Z,4.97
2016-02-11T02:36:21.453Z,4.93
2016-02-11T02:37:21.424Z,4.93
2016-02-11T02:38:21.411Z,4.93
2016-02-11T02:39:21.383Z,4.87
2016-02-11T02:40:21.339Z,4.9
2016-02-11T02:41:21.310Z,5
2016-02-11T02:42:21.296Z,4.92
2016-02-11T02:43:21.252Z,4.89
2016-02-11T02:44:21.239Z,4.84
2016-02-11T02:45:21.211Z,4.87
2016-02-11T02:46:21.183Z,4.77
2016-02-11T02:47:21.155Z,4.82
2016-02-11T02:48:21.110Z,4.9
2016-02-11T02:49:21.097Z,4.8
2016-02-11T02:50:21.068Z,4.82
2016-02-11T02:51:21.024Z,4.84
2016-02-11T02:52:21.010Z,4.8
2016-02-11T02:53:20.982Z,4.8
2016-02-11T02:54:20.941Z,4.87
2016-02-11T02:55:20.930Z,4.82
2016-02-11T02:56:20.901Z,4.75
2016-02-11T02:57:20.872Z,4.8
2016-02-11T02:58:20.844Z,4.82
2016-02-11T02:59:20.803Z,4.78
2016-02-11T03:00:20.837Z,4.78
2016-02-11T03:01:20.949Z,4.89
2016-02-11T03:02:20.734Z,4.75
2016-02-11T03:03:20.690Z,4.89
2016-02-11T03:04:20.667Z,4.8
2016-02-11T03:05:20.639Z,4.84
2016-02-11T03:06:20.612Z,4.9
2016-02-11T03:07:20.583Z,4.96
2016-02-11T03:08:20.554Z,4.84
2016-02-11T03:09:20.526Z,4.94
2016-02-11T03:10:20.544Z,4.82
2016-02-11T03:11:20.469Z,4.93
2016-02-11T03:12:20.440Z,4.93
2016-02-11T03:13:20.411Z,4.94
2016-02-11T03:14:20.384Z,4.97
2016-02-11T03:15:20.355Z,4.96
2016-02-11T03:16:20.327Z,4.97
2016-02-11T03:17:20.303Z,4.94
2016-02-11T03:18:20.275Z,4.99
2016-02-11T03:19:20.246Z,5.05
2016-02-11T03:20:20.218Z,5.05
2016-02-11T03:21:20.189Z,5.1
2016-02-11T03:22:20.146Z,5.1
2016-02-11T03:23:20.117Z,5.07
2016-02-11T03:24:20.092Z,5.08
2016-02-11T03:25:20.062Z,5.08
2016-02-11T03:26:20.034Z,5.05
2016-02-11T03:27:20.021Z,5.08
2016-02-11T03:28:19.993Z,5
2016-02-11T03:29:19.949Z,5.08
2016-02-11T03:30:19.921Z,5
2016-02-11T03:31:19.907Z,5.08
2016-02-11T03:32:19.864Z,5.02
2016-02-11T03:33:19.851Z,5.14
2016-02-11T03:34:19.823Z,5.12
2016-02-11T03:35:19.793Z,5.07
2016-02-11T03:36:19.750Z,5.17
2016-02-11T03:37:19.738Z,5.15
2016-02-11T03:38:19.710Z,5.1
2016-02-11T03:39:19.665Z,5.14
2016-02-11T03:40:19.636Z,5.12
2016-02-11T03:41:19.623Z,5.11
2016-02-11T03:42:19.596Z,5.1
2016-02-11T03:43:19.566Z,5.14
2016-02-11T03:44:19.538Z,5.14
2016-02-11T03:45:19.509Z,5.1
2016-02-11T03:46:19.481Z,5.14
2016-02-11T03:47:19.452Z,5.26
2016-02-11T03:48:19.424Z,5.23
2016-02-11T03:49:19.395Z,5.07
2016-02-11T03:50:19.367Z,5.18
2016-02-11T03:51:19.337Z,5.26
2016-02-11T03:52:19.309Z,5.21
2016-02-11T03:53:19.281Z,5.23
2016-02-11T03:54:19.253Z,5.21
2016-02-11T03:55:19.233Z,5.21
2016-02-11T03:56:19.189Z,5.3
2016-02-11T03:57:19.160Z,5.21
2016-02-11T03:58:19.148Z,5.26
2016-02-11T03:59:19.119Z,5.29
2016-02-11T04:00:19.091Z,5.29
2016-02-11T04:01:19.062Z,5.18
2016-02-11T04:02:19.019Z,5.3
2016-02-11T04:03:19.005Z,5.26
2016-02-11T04:04:18.977Z,5.3
2016-02-11T04:05:18.949Z,5.26
2016-02-11T04:06:18.920Z,5.28
2016-02-11T04:07:18.891Z,5.17
2016-02-11T04:08:18.865Z,5.12
2016-02-11T04:09:18.836Z,5.18
2016-02-11T04:10:18.807Z,5.12
2016-02-11T04:11:18.778Z,5.15
2016-02-11T04:12:18.750Z,5.15
2016-02-11T04:13:18.722Z,5.11
2016-02-11T04:14:18.695Z,5.07
2016-02-11T04:15:18.666Z,4.97
2016-02-11T04:16:18.638Z,5.04
2016-02-11T04:17:18.609Z,5.02
2016-02-11T04:18:18.580Z,5.04
2016-02-11T04:19:18.552Z,5.08
2016-02-11T04:20:18.524Z,5
2016-02-11T04:21:18.495Z,5.04
2016-02-11T04:22:18.467Z,5.07
2016-02-11T04:23:18.439Z,5.07
2016-02-11T04:24:18.410Z,5.07
2016-02-11T04:25:18.382Z,5.12
2016-02-11T04:26:18.353Z,5.07
2016-02-11T04:27:18.313Z,5.14
2016-02-11T04:28:18.332Z,5
2016-02-11T04:29:18.272Z,5.08
2016-02-11T04:30:18.243Z,5.07
2016-02-11T04:31:18.215Z,5.02
2016-02-11T04:32:18.187Z,5.07
2016-02-11T04:33:18.157Z,5.1
2016-02-11T04:34:18.130Z,5.12
2016-02-11T04:35:18.101Z,5.17
2016-02-11T04:36:18.073Z,5.15
2016-02-11T04:37:18.043Z,5.1
2016-02-11T04:38:18.014Z,5.18
2016-02-11T04:39:17.989Z,5.1
2016-02-11T04:40:17.961Z,5.21
2016-02-11T04:41:17.931Z,5.18
2016-02-11T04:42:17.903Z,5.25
2016-02-11T04:43:17.874Z,5.26
2016-02-11T04:44:17.846Z,5.29
2016-02-11T04:45:17.817Z,5.23
2016-02-11T04:46:17.789Z,5.32
2016-02-11T04:47:17.760Z,5.35
2016-02-11T04:48:17.734Z,5.28
2016-02-11T04:49:17.705Z,5.3
2016-02-11T04:50:17.676Z,5.36
2016-02-11T04:51:17.648Z,5.3
2016-02-11T04:52:17.619Z,5.33
2016-02-11T04:53:17.606Z,5.29
2016-02-11T04:54:17.562Z,5.32
2016-02-11T04:55:17.534Z,5.28
2016-02-11T04:56:17.506Z,5.26
2016-02-11T04:57:17.477Z,5.28
2016-02-11T04:58:17.452Z,5.26
2016-02-11T04:59:17.426Z,5.28
2016-02-11T05:00:17.397Z,5.29
2016-02-11T05:01:17.369Z,5.3
2016-02-11T05:02:17.340Z,5.3
2016-02-11T05:03:17.312Z,5.29
2016-02-11T05:04:17.299Z,5.28
2016-02-11T05:05:17.272Z,5.28
2016-02-11T05:06:17.227Z,5.26
2016-02-11T05:07:17.215Z,5.26
2016-02-11T05:08:17.170Z,5.26
2016-02-11T05:09:17.142Z,5.25
2016-02-11T05:10:17.130Z,5.29
2016-02-11T05:11:17.086Z,5.23
2016-02-11T05:12:17.072Z,5.29
2016-02-11T05:13:17.044Z,5.21
2016-02-11T05:14:16.999Z,5.29
2016-02-11T05:15:16.987Z,5.25
2016-02-11T05:16:16.942Z,5.28
2016-02-11T05:17:16.914Z,5.29
2016-02-11T05:18:16.742Z,5.25
2016-02-11T05:19:16.872Z,5.26
2016-02-11T05:20:16.841Z,5.3
2016-02-11T05:21:16.796Z,5.33
2016-02-11T05:22:16.785Z,5.28
2016-02-11T05:23:16.755Z,5.25
2016-02-11T05:24:16.727Z,5.28
2016-02-11T05:25:16.698Z,5.3
2016-02-11T05:26:16.665Z,5.28
2016-02-11T05:27:16.651Z,5.29
2016-02-11T05:28:16.623Z,5.26
2016-02-11T05:29:16.578Z,5.28
2016-02-11T05:30:16.550Z,5.26
2016-02-11T05:31:16.520Z,5.26
2016-02-11T05:32:16.492Z,5.28
2016-02-11T05:33:16.480Z,5.28
2016-02-11T05:34:16.437Z,5.33
2016-02-11T05:35:16.407Z,5.32
2016-02-11T05:36:16.380Z,5.3
2016-02-11T05:37:16.351Z,5.29
2016-02-11T05:38:16.337Z,5.43
2016-02-11T05:39:16.309Z,5.43
2016-02-11T05:40:16.265Z,5.43
2016-02-11T05:41:16.253Z,5.47
2016-02-11T05:42:16.225Z,5.41
2016-02-11T05:43:16.196Z,5.43
2016-02-11T05:44:16.167Z,5.43
2016-02-11T05:45:16.138Z,5.44
2016-02-11T05:46:16.110Z,5.38
2016-02-11T05:47:16.082Z,5.36
2016-02-11T05:48:16.053Z,5.47
2016-02-11T05:49:16.024Z,5.48
2016-02-11T05:50:15.997Z,5.53
2016-02-11T05:51:15.969Z,5.35
2016-02-11T05:52:15.940Z,5.47
2016-02-11T05:53:15.911Z,5.36
2016-02-11T05:54:15.888Z,5.47
2016-02-11T05:55:15.859Z,5.41
2016-02-11T05:56:15.832Z,5.41
2016-02-11T05:57:15.802Z,5.41
2016-02-11T05:58:15.775Z,5.41
2016-02-11T05:59:15.747Z,5.41
2016-02-11T06:00:15.719Z,5.47
2016-02-11T06:01:15.690Z,5.47
2016-02-11T06:02:15.661Z,5.51
2016-02-11T06:03:15.633Z,5.46
2016-02-11T06:04:15.604Z,5.41
2016-02-11T06:05:15.575Z,5.5
2016-02-11T06:06:15.563Z,5.44
2016-02-11T06:07:15.521Z,5.44
2016-02-11T06:08:15.507Z,5.47
2016-02-11T06:09:15.464Z,5.43
2016-02-11T06:10:15.451Z,5.46
2016-02-11T06:11:15.407Z,5.41
2016-02-11T06:12:15.365Z,5.44
2016-02-11T06:13:15.322Z,5.48
2016-02-11T06:14:15.296Z,5.43
2016-02-11T06:15:15.239Z,5.53
2016-02-11T06:16:15.212Z,5.48
2016-02-11T06:17:15.288Z,5.48
2016-02-11T06:18:15.239Z,5.5
2016-02-11T06:19:15.112Z,5.56
2016-02-11T06:20:15.079Z,5.59
2016-02-11T06:21:15.045Z,5.53
2016-02-11T06:22:14.999Z,5.57
2016-02-11T06:23:14.984Z,5.54
2016-02-11T06:24:14.969Z,5.5
2016-02-11T06:25:14.924Z,5.5
2016-02-11T06:26:14.895Z,5.57
2016-02-11T06:27:14.866Z,5.56
2016-02-11T06:28:14.837Z,5.51
2016-02-11T06:29:14.823Z,5.47
2016-02-11T06:30:14.793Z,5.48
2016-02-11T06:31:14.765Z,5.51
2016-02-11T06:32:14.721Z,5.48
2016-02-11T06:33:14.692Z,5.53
2016-02-11T06:34:14.662Z,5.54
2016-02-11T06:35:14.651Z,5.61
2016-02-11T06:36:14.608Z,5.56
2016-02-11T06:37:14.579Z,5.54
2016-02-11T06:38:14.565Z,5.56
2016-02-11T06:39:14.537Z,5.62
2016-02-11T06:40:14.508Z,5.53
2016-02-11T06:41:14.480Z,5.54
2016-02-11T06:42:14.451Z,5.5
2016-02-11T06:43:14.425Z,5.46
2016-02-11T06:44:14.396Z,5.5
2016-02-11T06:45:14.367Z,5.46
2016-02-11T06:46:14.339Z,5.44
2016-02-11T06:47:14.310Z,5.39
2016-02-11T06:48:14.282Z,5.41
2016-02-11T06:49:14.253Z,5.43
2016-02-11T06:50:14.240Z,5.5
2016-02-11T06:51:14.212Z,5.44
2016-02-11T06:52:14.169Z,5.38
2016-02-11T06:53:14.140Z,5.47
2016-02-11T06:54:14.118Z,5.41
2016-02-11T06:55:14.090Z,5.5
2016-02-11T06:56:14.060Z,5.39
2016-02-11T06:57:14.031Z,5.54
2016-02-11T06:58:14.004Z,5.54
2016-02-11T06:59:13.975Z,5.53
2016-02-11T07:00:13.948Z,5.47
2016-02-11T07:01:13.919Z,5.41
2016-02-11T07:02:13.891Z,5.38
2016-02-11T07:03:13.863Z,5.3
2016-02-11T07:04:13.833Z,5.43
2016-02-11T07:05:13.805Z,5.46
2016-02-11T07:06:13.792Z,5.29
2016-02-11T07:07:13.748Z,5.29
2016-02-11T07:08:13.719Z,5.3
2016-02-11T07:09:13.708Z,5.32
2016-02-11T07:10:13.679Z,5.29
2016-02-11T07:11:13.650Z,5.26
2016-02-11T07:12:13.622Z,5.33
2016-02-11T07:13:13.593Z,5.33
2016-02-11T07:14:13.565Z,5.29
2016-02-11T07:15:13.536Z,5.29
2016-02-11T07:16:13.508Z,5.33
2016-02-11T07:17:13.479Z,5.33
2016-02-11T07:18:13.450Z,5.28
2016-02-11T07:19:13.422Z,5.25
2016-02-11T07:20:13.393Z,5.25
2016-02-11T07:21:13.365Z,5.3
2016-02-11T07:22:13.336Z,5.3
2016-02-11T07:23:13.313Z,5.26
2016-02-11T07:24:13.285Z,5.28
2016-02-11T07:25:13.256Z,5.28
2016-02-11T07:26:13.227Z,5.32
2016-02-11T07:27:13.215Z,5.23
2016-02-11T07:28:13.170Z,5.25
2016-02-11T07:29:13.141Z,5.26
2016-02-11T07:30:13.113Z,5.23
2016-02-11T07:31:13.100Z,5.3
2016-02-11T07:32:13.056Z,5.33
2016-02-11T07:33:13.028Z,5.3
2016-02-11T07:34:12.999Z,5.29
2016-02-11T07:35:12.970Z,5.33
2016-02-11T07:36:12.942Z,5.29
2016-02-11T07:37:12.914Z,5.28
2016-02-11T07:38:12.900Z,5.28
2016-02-11T07:39:12.872Z,5.33
2016-02-11T07:40:12.843Z,5.29
2016-02-11T07:41:12.814Z,5.26
2016-02-11T07:42:12.786Z,5.3
2016-02-11T07:43:12.759Z,5.3
2016-02-11T07:44:12.729Z,5.33
2016-02-11T07:45:12.701Z,5.29
2016-02-11T07:46:12.663Z,5.29
2016-02-11T07:47:12.650Z,5.29
2016-02-11T07:48:12.606Z,5.29
2016-02-11T07:49:12.577Z,5.28
2016-02-11T07:50:12.565Z,5.3
2016-02-11T07:51:12.536Z,5.29
2016-02-11T07:52:12.506Z,5.26
2016-02-11T07:53:12.478Z,5.3
2016-02-11T07:54:12.498Z,5.3
2016-02-11T07:55:12.423Z,5.33
2016-02-11T07:56:12.398Z,5.28
2016-02-11T07:57:12.372Z,5.28
2016-02-11T07:58:12.328Z,5.3
2016-02-11T07:59:12.315Z,5.29
2016-02-11T08:00:12.286Z,5.29
2016-02-11T08:01:12.258Z,5.26
2016-02-11T08:02:12.229Z,5.3
2016-02-11T08:03:12.202Z,5.29
2016-02-11T08:04:12.173Z,5.3
2016-02-11T08:05:12.145Z,5.33
2016-02-11T08:06:12.116Z,5.32
2016-02-11T08:07:12.103Z,5.3
2016-02-11T08:08:12.058Z,5.32
2016-02-11T08:09:12.031Z,5.3
2016-02-11T08:10:12.017Z,5.3
2016-02-11T08:11:11.974Z,5.28
2016-02-11T08:12:11.946Z,5.26
2016-02-11T08:13:11.917Z,5.3
2016-02-11T08:14:11.903Z,5.35
2016-02-11T08:15:11.875Z,5.33
2016-02-11T08:16:11.847Z,5.28
2016-02-11T08:17:11.818Z,5.39
2016-02-11T08:18:11.789Z,5.38
2016-02-11T08:19:11.762Z,5.36
2016-02-11T08:20:11.749Z,5.36
2016-02-11T08:21:11.704Z,5.46
2016-02-11T08:22:11.677Z,5.44
2016-02-11T08:23:11.648Z,5.47
2016-02-11T08:24:11.650Z,5.53
2016-02-11T08:25:11.590Z,5.59
2016-02-11T08:26:11.578Z,5.54
2016-02-11T08:27:11.537Z,5.62
2016-02-11T08:28:11.508Z,5.65
2016-02-11T08:29:11.479Z,5.66
2016-02-11T08:30:11.467Z,5.73
2016-02-11T08:31:11.500Z,5.66
2016-02-11T08:32:11.409Z,5.69
2016-02-11T08:33:11.381Z,5.69
2016-02-11T08:34:11.353Z,5.68
2016-02-11T08:35:11.323Z,5.71
2016-02-11T08:36:11.295Z,5.69
2016-02-11T08:37:11.266Z,5.73
2016-02-11T08:38:11.238Z,5.68
2016-02-11T08:39:11.226Z,5.65
2016-02-11T08:40:11.197Z,5.75
2016-02-11T08:41:11.168Z,5.75
2016-02-11T08:42:11.155Z,5.72
2016-02-11T08:43:11.111Z,5.8
2016-02-11T08:44:11.098Z,5.75
2016-02-11T08:45:11.055Z,5.69
2016-02-11T08:46:11.041Z,5.76
2016-02-11T08:47:10.996Z,5.73
2016-02-11T08:48:10.983Z,5.73
2016-02-11T08:49:10.955Z,5.75
2016-02-11T08:50:10.927Z,5.76
2016-02-11T08:51:10.899Z,5.69
2016-02-11T08:52:10.885Z,5.76
2016-02-11T08:53:10.685Z,5.71
2016-02-11T08:54:10.813Z,5.72
2016-02-11T08:55:10.784Z,5.75
2016-02-11T08:56:10.771Z,5.71
2016-02-11T08:57:10.728Z,5.69
2016-02-11T08:58:10.721Z,5.8
2016-02-11T08:59:10.677Z,5.72
2016-02-11T09:00:10.649Z,5.84
2016-02-11T09:01:10.621Z,5.75
2016-02-11T09:02:10.608Z,5.79
2016-02-11T09:03:10.580Z,5.75
2016-02-11T09:04:10.551Z,5.75
2016-02-11T09:05:10.525Z,5.84
2016-02-11T09:06:10.480Z,5.86
2016-02-11T09:07:10.467Z,5.83
2016-02-11T09:08:10.438Z,5.84
2016-02-11T09:09:10.410Z,5.87
2016-02-11T09:10:10.381Z,5.86
2016-02-11T09:11:10.416Z,5.91
2016-02-11T09:12:10.324Z,6.05
2016-02-11T09:13:10.312Z,6.02
2016-02-11T09:14:10.283Z,6.12
2016-02-11T09:15:10.271Z,6.24
2016-02-11T09:16:10.227Z,6.19
2016-02-11T09:17:10.229Z,6.22
2016-02-11T09:18:10.170Z,6.38
2016-02-11T09:19:10.142Z,6.45
2016-02-11T09:20:10.112Z,6.52
2016-02-11T09:21:10.104Z,6.51
2016-02-11T09:22:10.060Z,6.54
2016-02-11T09:23:10.047Z,6.52
2016-02-11T09:24:10.159Z,6.56
2016-02-11T09:25:09.990Z,6.66
2016-02-11T09:26:09.960Z,6.64
2016-02-11T09:27:09.933Z,6.67
2016-02-11T09:28:09.904Z,6.79
2016-02-11T09:29:09.879Z,6.79
2016-02-11T09:30:09.849Z,6.81
2016-02-11T09:31:09.829Z,6.85
2016-02-11T09:32:09.800Z,6.87
2016-02-11T09:33:09.788Z,6.92
2016-02-11T09:34:09.760Z,6.93
2016-02-11T09:35:09.731Z,6.92
2016-02-11T09:36:09.718Z,6.93
2016-02-11T09:37:09.673Z,7.02
2016-02-11T09:38:09.675Z,7
2016-02-11T09:39:09.632Z,6.87
2016-02-11T09:40:09.603Z,7.02
2016-02-11T09:41:09.575Z,6.93
2016-02-11T09:42:09.562Z,6.96
2016-02-11T09:43:09.533Z,7.06
2016-02-11T09:44:09.520Z,6.93
2016-02-11T09:45:09.476Z,6.96
2016-02-11T09:46:09.463Z,6.93
2016-02-11T09:47:09.436Z,6.97
2016-02-11T09:48:09.408Z,6.99
2016-02-11T09:49:09.395Z,7
2016-02-11T09:50:09.352Z,6.97
2016-02-11T09:51:09.323Z,6.95
2016-02-11T09:52:09.311Z,6.93
2016-02-11T09:53:09.281Z,7.07
2016-02-11T09:54:09.253Z,7.11
2016-02-11T09:55:09.240Z,7.11
2016-02-11T09:56:09.211Z,7.06
2016-02-11T09:57:09.183Z,7.1
2016-02-11T09:58:09.155Z,7.14
2016-02-11T09:59:09.127Z,7.24
2016-02-11T10:00:09.113Z,7.18
2016-02-11T10:01:09.087Z,7.14
2016-02-11T10:02:09.136Z,7.13
2016-02-11T10:03:09.029Z,7.07
2016-02-11T10:04:09.017Z,7.13
2016-02-11T10:05:08.988Z,7.11
2016-02-11T10:06:08.959Z,7.14
2016-02-11T10:07:08.962Z,7.15
2016-02-11T10:08:08.902Z,7.21
2016-02-11T10:09:08.890Z,7.32
2016-02-11T10:10:08.861Z,7.29
2016-02-11T10:11:08.847Z,7.28
2016-02-11T10:12:08.804Z,7.31
2016-02-11T10:13:08.791Z,7.29
2016-02-11T10:14:08.762Z,7.43
2016-02-11T10:15:08.734Z,7.5
2016-02-11T10:16:08.721Z,7.43
2016-02-11T10:17:08.678Z,7.47
2016-02-11T10:18:08.681Z,7.45
2016-02-11T10:19:08.636Z,7.45
2016-02-11T10:20:08.606Z,7.5
2016-02-11T10:21:08.595Z,7.43
2016-02-11T10:22:08.566Z,7.35
2016-02-11T10:23:08.537Z,7.43
2016-02-11T10:24:08.525Z,7.43
2016-02-11T10:25:08.542Z,7.47
2016-02-11T10:26:08.483Z,7.47
2016-02-11T10:27:08.439Z,7.45
2016-02-11T10:28:08.410Z,7.45
2016-02-11T10:29:08.397Z,7.51
2016-02-11T10:30:08.369Z,7.51
2016-02-11T10:31:08.356Z,7.5
2016-02-11T10:32:08.328Z,7.47
2016-02-11T10:33:08.302Z,7.48
2016-02-11T10:34:08.288Z,7.67
2016-02-11T10:35:08.245Z,7.58
2016-02-11T10:36:08.232Z,7.66
2016-02-11T10:37:08.204Z,7.66
2016-02-11T10:38:08.175Z,7.69
2016-02-11T10:39:08.162Z,7.7
2016-02-11T10:40:08.134Z,7.82
2016-02-11T10:41:08.106Z,7.85
2016-02-11T10:42:08.093Z,7.8
2016-02-11T10:43:08.064Z,7.85
2016-02-11T10:44:08.052Z,7.91
2016-02-11T10:45:08.007Z,7.95
2016-02-11T10:46:07.995Z,7.95
2016-02-11T10:47:07.982Z,7.94
2016-02-11T10:48:07.937Z,7.93
2016-02-11T10:49:07.940Z,8
2016-02-11T10:50:07.896Z,8.05
2016-02-11T10:51:07.868Z,8.06
2016-02-11T10:52:07.857Z,8.05
2016-02-11T10:53:07.828Z,8.12
2016-02-11T10:54:07.801Z,8.1
2016-02-11T10:55:07.787Z,8.08
2016-02-11T10:56:07.743Z,8.03
2016-02-11T10:57:07.981Z,8.06
2016-02-11T10:58:07.704Z,8
2016-02-11T10:59:07.707Z,7.98
2016-02-11T11:00:07.663Z,8.01
2016-02-11T11:01:07.634Z,8.01
2016-02-11T11:02:07.668Z,8.01
2016-02-11T11:03:07.611Z,8.01
2016-02-11T11:04:07.566Z,7.97
2016-02-11T11:05:07.554Z,8.03
2016-02-11T11:06:07.510Z,8.01
2016-02-11T11:07:07.496Z,8.09
2016-02-11T11:08:07.468Z,8.01
2016-02-11T11:09:07.440Z,8.01
2016-02-11T11:10:07.426Z,8.06
2016-02-11T11:11:07.429Z,8.18
2016-02-11T11:12:07.369Z,8.18
2016-02-11T11:13:07.357Z,8.15
2016-02-11T11:14:07.329Z,8.2
2016-02-11T11:15:07.299Z,8.27
2016-02-11T11:16:07.286Z,8.33
2016-02-11T11:17:07.274Z,8.34
2016-02-11T11:18:07.246Z,8.34
2016-02-11T11:19:07.217Z,8.34
2016-02-11T11:20:07.188Z,8.34
2016-02-11T11:21:07.160Z,8.45
2016-02-11T11:22:07.147Z,8.37
2016-02-11T11:23:07.118Z,8.42
2016-02-11T11:24:07.106Z,8.45
2016-02-11T11:25:07.077Z,8.42
2016-02-11T11:26:07.046Z,8.46
2016-02-11T11:27:07.033Z,8.46
2016-02-11T11:28:07.004Z,8.52
2016-02-11T11:29:06.975Z,8.46
2016-02-11T11:30:06.962Z,8.46
2016-02-11T11:31:06.934Z,8.31
2016-02-11T11:32:06.921Z,8.27
2016-02-11T11:33:06.893Z,8.3
2016-02-11T11:34:06.880Z,8.3
2016-02-11T11:35:06.847Z,8.2
2016-02-11T11:36:06.820Z,8.24
2016-02-11T11:37:06.791Z,8.19
2016-02-11T11:38:06.777Z,8.26
2016-02-11T11:39:06.750Z,8.18
2016-02-11T11:40:06.721Z,8.16
2016-02-11T11:41:06.708Z,8.05
2016-02-11T11:42:06.741Z,8.12
2016-02-11T11:43:06.667Z,8.01
2016-02-11T11:44:06.638Z,8.09
2016-02-11T11:45:06.611Z,8.1
2016-02-11T11:46:06.582Z,8.1
2016-02-11T11:47:06.569Z,8.01
2016-02-11T11:48:06.541Z,8
2016-02-11T11:49:06.511Z,8.06
2016-02-11T11:50:06.499Z,8.12
2016-02-11T11:51:06.480Z,8.05
2016-02-11T11:52:06.453Z,8.1
2016-02-11T11:53:06.424Z,8.12
2016-02-11T11:54:06.244Z,8.1
2016-02-11T11:55:06.215Z,8.1
2016-02-11T11:56:06.374Z,8.15
2016-02-11T11:57:06.171Z,8.03
2016-02-11T11:58:06.309Z,8.01
2016-02-11T11:59:06.452Z,8.1
2016-02-11T12:00:06.372Z,8.09
2016-02-11T12:01:06.217Z,8.08
2016-02-11T12:02:06.205Z,8.08
2016-02-11T12:03:06.192Z,8.08
2016-02-11T12:04:06.179Z,8.23
2016-02-11T12:05:06.135Z,8.15
2016-02-11T12:06:06.200Z,8.18
2016-02-11T12:07:06.077Z,8.24
2016-02-11T12:08:06.064Z,8.16
2016-02-11T12:09:06.036Z,8.26
2016-02-11T12:10:06.039Z,8.37
2016-02-11T12:11:05.995Z,8.41
2016-02-11T12:12:05.966Z,8.41
2016-02-11T12:13:05.938Z,8.42
2016-02-11T12:14:05.909Z,8.45
2016-02-11T12:15:05.896Z,8.55
2016-02-11T12:16:05.868Z,8.56
2016-02-11T12:17:05.855Z,8.67
2016-02-11T12:18:05.827Z,8.73
2016-02-11T12:19:05.813Z,8.71
2016-02-11T12:20:05.785Z,8.7
2016-02-11T12:21:05.943Z,8.69
2016-02-11T12:22:05.743Z,8.74
2016-02-11T12:23:05.716Z,8.7
2016-02-11T12:24:05.704Z,8.74
2016-02-11T12:25:05.659Z,8.7
2016-02-11T12:26:05.662Z,8.71
2016-02-11T12:27:05.617Z,8.71
2016-02-11T12:28:05.607Z,8.74
2016-02-11T12:29:05.579Z,8.79
2016-02-11T12:30:05.551Z,8.67
2016-02-11T12:31:05.538Z,8.73
2016-02-11T12:32:05.500Z,8.73
2016-02-11T12:33:05.487Z,8.78
2016-02-11T12:34:05.459Z,8.78
2016-02-11T12:35:05.429Z,8.78
2016-02-11T12:36:05.417Z,8.73
2016-02-11T12:37:05.389Z,8.69
2016-02-11T12:38:05.361Z,8.64
2016-02-11T12:39:05.395Z,8.69
2016-02-11T12:40:05.320Z,8.71
2016-02-11T12:41:05.291Z,8.61
2016-02-11T12:42:05.263Z,8.67
2016-02-11T12:43:05.250Z,8.73
2016-02-11T12:44:05.221Z,8.67
2016-02-11T12:45:05.208Z,8.66
2016-02-11T12:46:05.180Z,8.69
2016-02-11T12:47:05.152Z,8.63
2016-02-11T12:48:05.155Z,8.71
2016-02-11T12:49:05.111Z,8.63
2016-02-11T12:50:05.083Z,8.41
2016-02-11T12:51:05.053Z,8.48
2016-02-11T12:52:05.041Z,8.51
2016-02-11T12:53:05.012Z,8.44
2016-02-11T12:54:05.000Z,8.42
2016-02-11T12:55:04.971Z,8.37
2016-02-11T12:56:04.942Z,8.31
2016-02-11T12:57:04.914Z,8.37
2016-02-11T12:58:04.885Z,8.3
2016-02-11T12:59:04.872Z,8.27
2016-02-11T13:00:04.845Z,8.15
2016-02-11T13:01:04.816Z,8.12
2016-02-11T13:02:04.824Z,8.2
2016-02-11T13:03:05.249Z,8.1
2016-02-11T13:04:04.752Z,8.05
2016-02-11T13:05:04.722Z,8.1
2016-02-11T13:06:04.711Z,8.08
2016-02-11T13:07:04.681Z,8.12
2016-02-11T13:08:04.652Z,8.09
2016-02-11T13:09:04.624Z,8.12
2016-02-11T13:10:04.596Z,8.1
2016-02-11T13:11:04.569Z,8.09
2016-02-11T13:12:04.572Z,8.19
2016-02-11T13:13:04.528Z,8.16
2016-02-11T13:14:04.531Z,8.06
2016-02-11T13:15:04.487Z,8.16
2016-02-11T13:16:04.458Z,8.09
2016-02-11T13:17:04.430Z,8.12
2016-02-11T13:18:04.416Z,8.18
2016-02-11T13:19:04.560Z,8.1
2016-02-11T13:20:04.377Z,8.16
2016-02-11T13:21:04.347Z,8.16
2016-02-11T13:22:04.303Z,8.15